Time;durP1;ratioP1;P1;durP2;ratioP2;P2;SDS_P1;SDS_P2;PMS_P1;PMS_P2;Temp;Humidity;BMP_temperature;BMP_pressure;BME280_temperature;BME280_humidity;BME280_pressure;Samples;Min_cycle;Max_cycle;Signal;HPM_P1;HPM_P2
2023/04/29 00:02:02;;;;;;;13.70;11.00;;;;;;;7.37;51.61;100529.41;106073;265;39976;-75
2023/04/29 00:04:36;;;;;;;19.90;13.70;;;;;;;7.34;51.62;100525.66;105656;276;38447;-75
2023/04/29 00:07:14;;;;;;;17.10;11.50;;;;;;;7.32;51.84;100522.06;105687;276;38301;-75
2023/04/29 00:09:48;;;;;;;15.40;11.90;;;;;;;7.30;51.94;100522.98;105673;276;38506;-75
2023/04/29 00:12:22;;;;;;;15.70;11.70;;;;;;;7.27;52.00;100524.59;104995;276;908050;-75
2023/04/29 00:14:57;;;;;;;16.00;11.10;;;;;;;7.26;52.01;100520.63;105374;278;38402;-75
2023/04/29 00:17:31;;;;;;;22.90;14.20;;;;;;;7.25;52.04;100519.62;105381;278;40628;-74
2023/04/29 00:20:06;;;;;;;19.50;13.10;;;;;;;7.23;52.11;100518.27;105665;277;38704;-74
2023/04/29 00:22:40;;;;;;;20.10;12.40;;;;;;;7.21;52.27;100518.30;105624;277;39976;-74
2023/04/29 00:25:14;;;;;;;23.40;15.60;;;;;;;7.20;52.55;100516.59;105374;278;38389;-74
2023/04/29 00:27:48;;;;;;;17.30;11.40;;;;;;;7.20;52.45;100511.73;105655;276;39873;-73
2023/04/29 00:30:22;;;;;;;12.80;10.40;;;;;;;7.19;52.45;100508.98;105661;276;38240;-74
2023/04/29 00:32:56;;;;;;;15.80;10.40;;;;;;;7.19;52.19;100509.48;105397;276;40152;-74
2023/04/29 00:35:30;;;;;;;14.90;10.50;;;;;;;7.20;52.33;100512.77;105668;277;38934;-74
2023/04/29 00:38:05;;;;;;;13.10;10.50;;;;;;;7.20;52.60;100511.73;106136;277;39485;-74
2023/04/29 00:40:39;;;;;;;15.30;10.70;;;;;;;7.20;52.49;100508.27;106105;276;38690;-74
2023/04/29 00:43:13;;;;;;;15.20;10.10;;;;;;;7.20;52.44;100508.27;105602;276;39425;-74
2023/04/29 00:45:47;;;;;;;13.40;10.50;;;;;;;7.20;52.41;100507.73;105624;276;38709;-74
2023/04/29 00:48:21;;;;;;;15.50;10.80;;;;;;;7.18;52.56;100503.78;105588;276;39914;-74
2023/04/29 00:50:55;;;;;;;14.30;10.10;;;;;;;7.18;52.51;100504.83;105571;277;39655;-74
2023/04/29 00:53:29;;;;;;;13.90;10.60;;;;;;;7.18;52.58;100504.84;106032;277;38781;-74
2023/04/29 00:56:03;;;;;;;14.50;10.90;;;;;;;7.18;52.65;100499.64;105594;277;39505;-74
2023/04/29 00:58:38;;;;;;;15.00;11.30;;;;;;;7.17;52.68;100498.08;105905;277;174548;-75
2023/04/29 01:01:12;;;;;;;14.10;10.60;;;;;;;7.18;52.72;100495.48;105587;277;39424;-75
2023/04/29 01:03:46;;;;;;;16.80;11.00;;;;;;;7.17;52.69;100493.40;104908;277;907533;-75
2023/04/29 01:06:30;;;;;;;15.10;10.40;;;;;;;7.18;52.60;100492.36;105571;277;39380;-74
2023/04/29 01:09:17;;;;;;;14.20;11.00;;;;;;;7.17;52.73;100498.10;106066;277;38720;-74
2023/04/29 01:12:00;;;;;;;13.50;10.80;;;;;;;7.15;52.80;100496.58;105484;277;172116;-74
2023/04/29 01:14:34;;;;;;;15.60;10.80;;;;;;;7.14;52.76;100496.59;105346;277;38328;-73
2023/04/29 01:17:11;;;;;;;15.50;11.50;;;;;;;7.14;52.85;100491.58;105962;277;38246;-73
2023/04/29 01:19:50;;;;;;;17.00;11.50;;;;;;;7.13;52.76;100492.98;105601;277;40292;-73
2023/04/29 01:22:24;;;;;;;15.20;10.70;;;;;;;7.13;52.83;100496.45;105570;277;39140;-74
2023/04/29 01:24:59;;;;;;;14.10;10.10;;;;;;;7.13;52.98;100496.10;105597;277;38578;-73
2023/04/29 01:27:37;;;;;;;13.60;10.40;;;;;;;7.12;52.87;100495.59;105602;277;38309;-73
2023/04/29 01:30:17;;;;;;;14.30;9.80;;;;;;;7.13;52.87;100489.85;105596;277;38246;-74
2023/04/29 01:33:01;;;;;;;11.70;9.70;;;;;;;7.15;52.88;100492.25;105602;277;39827;-74
2023/04/29 01:35:54;;;;;;;13.70;10.90;;;;;;;7.16;52.77;100494.99;105015;277;837350;-74
2023/04/29 01:38:36;;;;;;;13.60;10.20;;;;;;;7.16;52.73;100492.73;105594;277;38775;-74
2023/04/29 01:41:16;;;;;;;12.10;9.80;;;;;;;7.17;52.77;100492.38;105365;278;38236;-72
2023/04/29 01:43:52;;;;;;;13.20;9.70;;;;;;;7.17;52.93;100494.61;105582;277;38414;-72
2023/04/29 01:46:26;;;;;;;13.80;9.60;;;;;;;7.18;52.80;100495.64;105565;277;38396;-75
2023/04/29 01:49:00;;;;;;;11.90;9.50;;;;;;;7.18;52.72;100498.92;105572;277;38292;-75
2023/04/29 01:51:34;;;;;;;13.30;9.60;;;;;;;7.19;52.84;100493.38;105464;277;188580;-74
2023/04/29 01:54:09;;;;;;;12.20;9.20;;;;;;;7.18;52.75;100493.02;105590;277;38582;-74
2023/04/29 01:56:43;;;;;;;14.50;9.90;;;;;;;7.18;52.79;100496.16;105993;277;39531;-73
2023/04/29 01:59:17;;;;;;;15.70;10.60;;;;;;;7.18;52.84;100494.60;105605;277;39889;-73
2023/04/29 02:01:51;;;;;;;13.30;9.80;;;;;;;7.18;52.82;100493.04;105595;277;39899;-73
2023/04/29 02:04:27;;;;;;;14.70;10.10;;;;;;;7.17;52.80;100492.36;105619;277;39911;-73
2023/04/29 02:07:02;;;;;;;12.10;9.00;;;;;;;7.18;52.84;100491.31;106001;277;39459;-73
2023/04/29 02:09:36;;;;;;;16.10;9.70;;;;;;;7.16;53.06;100489.78;105599;277;39648;-73
2023/04/29 02:12:10;;;;;;;11.10;9.20;;;;;;;7.16;52.83;100488.23;105633;277;39682;-74
2023/04/29 02:14:46;;;;;;;12.70;9.50;;;;;;;7.16;52.93;100485.27;105988;277;38457;-73
2023/04/29 02:17:20;;;;;;;12.20;9.00;;;;;;;7.15;52.86;100485.30;105632;285;38402;-73
2023/04/29 02:19:54;;;;;;;11.20;8.70;;;;;;;7.15;52.94;100482.51;105983;277;38384;-74
2023/04/29 02:22:29;;;;;;;14.70;9.20;;;;;;;7.15;52.88;100479.58;105650;265;38496;-74
2023/04/29 02:25:03;;;;;;;12.70;9.20;;;;;;;7.16;52.96;100479.73;105637;277;38472;-74
2023/04/29 02:27:38;;;;;;;12.40;9.10;;;;;;;7.15;52.87;100478.89;105688;277;38731;-74
2023/04/29 02:30:14;;;;;;;12.90;9.20;;;;;;;7.15;52.82;100476.81;105644;277;38505;-74
2023/04/29 02:32:50;;;;;;;11.90;8.70;;;;;;;7.14;52.83;100478.71;105693;277;39395;-74
2023/04/29 02:35:24;;;;;;;11.90;8.70;;;;;;;7.14;53.04;100475.95;105356;277;38379;-73
2023/04/29 02:37:59;;;;;;;12.50;9.00;;;;;;;7.13;53.00;100471.83;106016;277;38867;-73
2023/04/29 02:40:33;;;;;;;12.70;8.70;;;;;;;7.12;52.96;100469.40;105625;277;37903;-74
2023/04/29 02:43:08;;;;;;;12.80;9.10;;;;;;;7.13;52.91;100472.16;106016;277;38726;-75
2023/04/29 02:45:43;;;;;;;11.60;8.50;;;;;;;7.13;52.87;100470.95;105619;277;38363;-75
2023/04/29 02:48:17;;;;;;;11.00;8.70;;;;;;;7.12;52.97;100470.45;105629;277;39397;-74
2023/04/29 02:50:51;;;;;;;11.50;8.00;;;;;;;7.12;52.91;100471.14;105626;277;39429;-73
2023/04/29 02:53:25;;;;;;;10.70;8.40;;;;;;;7.12;52.94;100475.30;105650;277;39684;-74
2023/04/29 02:55:59;;;;;;;12.20;9.10;;;;;;;7.12;53.03;100471.66;106024;277;38269;-73
2023/04/29 02:58:33;;;;;;;10.90;8.20;;;;;;;7.10;53.00;100469.78;105652;277;38616;-73
2023/04/29 03:01:07;;;;;;;11.30;8.80;;;;;;;7.09;52.99;100469.64;105630;277;38238;-74
2023/04/29 03:03:41;;;;;;;11.40;8.20;;;;;;;7.09;53.08;100469.81;105640;277;38294;-74
2023/04/29 03:06:16;;;;;;;13.20;8.70;;;;;;;7.10;53.13;100468.06;105658;277;38339;-74
2023/04/29 03:08:50;;;;;;;11.80;8.60;;;;;;;7.10;53.15;100463.21;105639;277;38886;-74
2023/04/29 03:11:27;;;;;;;12.70;8.40;;;;;;;7.10;53.20;100463.39;105611;277;38877;-74
2023/04/29 03:14:01;;;;;;;12.80;7.90;;;;;;;7.10;53.02;100464.24;106033;277;39946;-74
2023/04/29 03:16:35;;;;;;;9.20;7.70;;;;;;;7.11;53.11;100465.09;105625;277;38467;-74
2023/04/29 03:19:10;;;;;;;13.20;7.90;;;;;;;7.12;53.15;100467.67;105613;277;39379;-74
2023/04/29 03:21:44;;;;;;;11.80;8.00;;;;;;;7.13;53.05;100461.06;105435;277;38602;-74
2023/04/29 03:24:19;;;;;;;10.80;7.60;;;;;;;7.13;53.06;100460.19;105624;277;38823;-74
2023/04/29 03:26:58;;;;;;;11.30;7.80;;;;;;;7.12;53.15;100463.67;105411;277;38294;-73
2023/04/29 03:29:33;;;;;;;10.00;8.10;;;;;;;7.13;53.10;100461.73;106031;277;38544;-73
2023/04/29 03:32:07;;;;;;;12.00;8.30;;;;;;;7.14;53.12;100462.08;105362;277;39659;-73
2023/04/29 03:34:42;;;;;;;13.40;8.30;;;;;;;7.15;53.11;100459.82;105654;277;39688;-73
2023/04/29 03:37:16;;;;;;;12.60;8.70;;;;;;;7.16;53.12;100461.52;105639;277;38360;-73
2023/04/29 03:39:51;;;;;;;11.50;7.80;;;;;;;7.16;53.23;100459.08;105640;277;38284;-73
2023/04/29 03:42:25;;;;;;;10.20;7.70;;;;;;;7.17;53.16;100460.27;105643;277;38244;-73
2023/04/29 03:45:00;;;;;;;10.20;7.80;;;;;;;7.19;53.17;100460.41;105663;277;38545;-73
2023/04/29 03:47:36;;;;;;;10.90;7.50;;;;;;;7.20;53.29;100463.86;105656;277;38494;-73
2023/04/29 03:50:12;;;;;;;9.20;7.80;;;;;;;7.21;53.14;100463.48;105407;277;38522;-73
2023/04/29 03:52:47;;;;;;;11.50;7.70;;;;;;;7.22;53.20;100462.39;105618;277;40382;-73
2023/04/29 03:55:22;;;;;;;10.10;7.70;;;;;;;7.24;53.21;100462.36;105626;277;38246;-74
2023/04/29 03:57:56;;;;;;;14.80;7.90;;;;;;;7.27;53.07;100459.20;105395;279;38491;-74
2023/04/29 04:00:32;;;;;;;9.40;7.80;;;;;;;7.31;53.14;100464.14;105649;277;38230;-74
2023/04/29 04:03:07;;;;;;;15.20;9.00;;;;;;;7.36;53.13;100463.13;105628;277;38273;-74
2023/04/29 04:05:44;;;;;;;11.50;8.60;;;;;;;7.43;53.05;100463.66;105643;277;38683;-74
2023/04/29 04:08:19;;;;;;;11.10;7.80;;;;;;;7.46;53.01;100463.75;105643;277;38273;-74
2023/04/29 04:10:54;;;;;;;11.00;8.80;;;;;;;7.49;53.00;100464.90;105661;277;38221;-74
2023/04/29 04:13:28;;;;;;;12.80;8.30;;;;;;;7.53;52.91;100461.34;105646;277;38579;-75
2023/04/29 04:16:03;;;;;;;13.60;8.70;;;;;;;7.60;53.00;100462.73;105651;277;38226;-74
2023/04/29 04:18:38;;;;;;;10.20;8.20;;;;;;;7.66;52.89;100454.95;105664;277;38434;-74
2023/04/29 04:21:19;;;;;;;12.20;8.20;;;;;;;7.75;52.89;100458.54;105375;279;39555;-74
2023/04/29 04:23:56;;;;;;;12.90;8.30;;;;;;;7.88;52.82;100455.61;105374;278;38660;-74
2023/04/29 04:26:30;;;;;;;9.30;7.50;;;;;;;8.00;52.65;100452.70;105633;277;38776;-73
2023/04/29 04:29:05;;;;;;;13.20;7.90;;;;;;;8.17;52.46;100448.43;105638;277;38575;-74
2023/04/29 04:31:39;;;;;;;11.90;8.20;;;;;;;8.42;52.25;100444.80;105622;277;38229;-73
2023/04/29 04:34:13;;;;;;;11.90;7.90;;;;;;;8.71;51.71;100442.95;105633;277;38969;-73
2023/04/29 04:36:47;;;;;;;10.50;7.50;;;;;;;9.07;51.38;100444.64;105641;277;38387;-74
2023/04/29 04:39:22;;;;;;;11.20;7.60;;;;;;;9.56;50.73;100440.84;106045;277;39576;-74
2023/04/29 04:41:57;;;;;;;8.90;6.90;;;;;;;10.09;50.08;100439.23;105642;277;40101;-75
2023/04/29 04:44:32;;;;;;;10.10;7.30;;;;;;;10.70;48.95;100437.21;105613;269;39994;-73
2023/04/29 04:47:06;;;;;;;8.70;7.40;;;;;;;11.29;48.45;100435.45;105624;277;38473;-73
2023/04/29 04:49:41;;;;;;;9.30;7.30;;;;;;;11.82;47.09;100430.68;105625;277;39558;-73
2023/04/29 04:52:15;;;;;;;8.40;6.70;;;;;;;12.35;46.06;100428.91;105612;277;38231;-75
2023/04/29 04:54:50;;;;;;;10.30;6.80;;;;;;;12.73;44.52;100424.92;105588;277;38612;-73
2023/04/29 04:57:24;;;;;;;8.70;6.40;;;;;;;13.04;43.41;100427.17;105590;277;39379;-73
2023/04/29 04:59:58;;;;;;;7.20;6.20;;;;;;;13.22;42.17;100420.37;105589;277;39811;-74
2023/04/29 05:02:32;;;;;;;8.80;7.00;;;;;;;13.19;41.89;100420.15;105585;277;38387;-74
2023/04/29 05:05:07;;;;;;;9.50;6.40;;;;;;;13.06;41.48;100427.08;105601;277;38475;-74
2023/04/29 05:07:41;;;;;;;9.00;6.40;;;;;;;12.76;41.65;100427.09;105591;277;38501;-74
2023/04/29 05:10:15;;;;;;;8.30;6.50;;;;;;;12.54;42.00;100424.92;106027;277;38918;-74
2023/04/29 05:12:50;;;;;;;7.80;6.20;;;;;;;12.37;42.04;100426.58;105573;277;38640;-74
2023/04/29 05:15:26;;;;;;;7.50;6.10;;;;;;;12.27;42.33;100426.48;105595;277;40138;-73
2023/04/29 05:18:00;;;;;;;9.70;6.40;;;;;;;12.27;42.49;100423.50;106050;277;39649;-73
2023/04/29 05:20:35;;;;;;;9.20;6.80;;;;;;;12.20;42.36;100427.50;105599;277;39642;-74
2023/04/29 05:23:12;;;;;;;8.70;5.80;;;;;;;12.08;42.54;100421.17;105623;277;39407;-74
2023/04/29 05:25:46;;;;;;;9.00;6.60;;;;;;;12.07;42.67;100423.87;105609;270;39871;-74
2023/04/29 05:28:20;;;;;;;10.20;6.10;;;;;;;12.04;42.68;100424.50;105573;277;39196;-76
2023/04/29 05:30:56;;;;;;;9.30;5.90;;;;;;;12.05;42.88;100424.81;105619;277;39914;-74
2023/04/29 05:33:30;;;;;;;9.90;6.10;;;;;;;12.28;43.11;100424.71;106008;277;38518;-75
2023/04/29 05:36:05;;;;;;;7.70;5.60;;;;;;;12.52;42.72;100422.76;105611;277;38370;-74
2023/04/29 05:38:39;;;;;;;7.40;5.90;;;;;;;13.20;43.58;100421.68;105597;277;38218;-74
2023/04/29 05:41:14;;;;;;;10.00;6.10;;;;;;;14.25;41.51;100420.62;105419;277;38303;-73
2023/04/29 05:43:48;;;;;;;10.50;5.80;;;;;;;14.91;40.78;100418.71;105609;277;38376;-72
2023/04/29 05:46:23;;;;;;;8.80;5.50;;;;;;;15.70;39.52;100411.39;106018;285;38255;-76
2023/04/29 05:48:58;;;;;;;8.70;5.50;;;;;;;16.42;38.22;100412.17;105564;277;38208;-74
2023/04/29 05:51:33;;;;;;;8.20;5.40;;;;;;;16.94;36.51;100416.15;105556;277;38202;-75
2023/04/29 05:54:07;;;;;;;6.60;5.20;;;;;;;17.44;35.33;100411.52;106004;277;38293;-75
2023/04/29 05:56:42;;;;;;;7.60;5.10;;;;;;;17.85;34.65;100407.57;105574;277;39367;-75
2023/04/29 05:59:16;;;;;;;8.90;4.90;;;;;;;18.40;34.06;100406.26;105344;277;39460;-76
2023/04/29 06:01:51;;;;;;;6.90;4.90;;;;;;;18.73;32.92;100411.56;105318;278;39446;-75
2023/04/29 06:04:28;;;;;;;7.10;4.50;;;;;;;18.98;32.59;100413.48;105585;277;38475;-76
2023/04/29 06:07:03;;;;;;;7.00;4.70;;;;;;;19.44;31.78;100411.86;105651;277;38217;-75
2023/04/29 06:09:38;;;;;;;7.20;5.20;;;;;;;19.81;31.35;100411.05;105495;277;173900;-76
2023/04/29 06:12:12;;;;;;;5.90;4.70;;;;;;;20.27;30.89;100409.98;105996;277;39771;-74
2023/04/29 06:14:46;;;;;;;6.00;4.50;;;;;;;20.93;29.73;100407.05;105617;277;39992;-73
2023/04/29 06:17:20;;;;;;;7.10;4.50;;;;;;;21.40;29.21;100410.50;105948;277;39958;-75
2023/04/29 06:19:54;;;;;;;5.70;4.50;;;;;;;21.82;28.07;100404.70;105336;278;38500;-73
2023/04/29 06:22:28;;;;;;;6.20;4.70;;;;;;;22.00;27.66;100405.83;105951;277;40133;-73
2023/04/29 06:25:02;;;;;;;5.40;4.50;;;;;;;22.11;27.35;100405.61;105970;277;39641;-74
2023/04/29 06:27:36;;;;;;;5.50;4.70;;;;;;;22.39;27.14;100403.06;105389;277;187722;-71
2023/04/29 06:30:12;;;;;;;8.10;4.20;;;;;;;22.91;26.99;100405.41;105628;277;38242;-74
2023/04/29 06:32:46;;;;;;;5.30;4.30;;;;;;;23.48;26.74;100401.20;105638;277;38364;-76
2023/04/29 06:35:20;;;;;;;7.20;4.10;;;;;;;23.95;25.45;100402.36;105645;277;39244;-75
2023/04/29 06:37:56;;;;;;;6.00;4.00;;;;;;;24.01;24.68;100399.45;105643;277;38901;-75
2023/04/29 06:40:33;;;;;;;81.70;10.00;;;;;;;24.17;25.19;100401.72;105654;277;38592;-73
2023/04/29 06:43:08;;;;;;;20.40;5.20;;;;;;;24.28;23.92;100405.27;105963;277;40121;-71
2023/04/29 06:45:42;;;;;;;8.40;4.50;;;;;;;24.36;24.64;100397.41;105973;277;38250;-76
2023/04/29 06:48:17;;;;;;;5.70;3.80;;;;;;;24.68;24.08;100397.92;105625;277;38062;-75
2023/04/29 06:50:55;;;;;;;6.80;4.50;;;;;;;24.77;23.70;100398.66;105627;277;39423;-72
2023/04/29 06:53:29;;;;;;;5.30;4.10;;;;;;;24.73;23.56;100396.88;105627;277;39699;-74
2023/04/29 06:56:04;;;;;;;6.00;3.90;;;;;;;24.41;23.50;100396.70;105648;277;38276;-75
2023/04/29 06:58:39;;;;;;;6.50;4.20;;;;;;;23.87;23.91;100401.70;105672;277;38505;-73
2023/04/29 07:01:13;;;;;;;6.30;4.00;;;;;;;23.24;23.96;100402.98;105661;277;39395;-75
2023/04/29 07:03:48;;;;;;;6.70;4.50;;;;;;;22.65;24.75;100401.48;105641;277;39959;-74
2023/04/29 07:06:22;;;;;;;7.50;4.50;;;;;;;22.40;24.75;100400.47;105673;277;38861;-75
2023/04/29 07:08:57;;;;;;;6.40;3.40;;;;;;;22.15;25.44;100395.16;106005;277;38461;-75
2023/04/29 07:11:32;;;;;;;7.60;3.80;;;;;;;22.04;25.52;100395.22;105657;277;38317;-76
2023/04/29 07:14:06;;;;;;;5.10;3.50;;;;;;;22.15;25.58;100391.77;105649;277;38353;-75
2023/04/29 07:16:40;;;;;;;5.00;3.50;;;;;;;22.37;25.87;100387.73;105997;277;38269;-76
2023/04/29 07:19:14;;;;;;;7.80;3.50;;;;;;;22.83;26.07;100388.89;105671;277;38211;-76
2023/04/29 07:21:49;;;;;;;5.50;3.50;;;;;;;23.26;25.90;100383.37;105652;277;39417;-74
2023/04/29 07:24:24;;;;;;;6.80;3.70;;;;;;;23.73;24.96;100381.46;105640;277;38244;-75
2023/04/29 07:26:58;;;;;;;5.60;3.70;;;;;;;23.77;23.86;100385.85;105644;277;38226;-73
2023/04/29 07:29:32;;;;;;;4.80;3.90;;;;;;;23.76;23.83;100380.45;105461;277;38506;-75
2023/04/29 07:32:07;;;;;;;6.80;3.80;;;;;;;23.92;24.14;100377.30;105629;277;38782;-75
2023/04/29 07:34:41;;;;;;;9.00;4.20;;;;;;;24.18;24.10;100378.41;105670;277;38732;-73
2023/04/29 07:37:15;;;;;;;4.80;3.60;;;;;;;24.30;23.95;100375.70;105360;278;38735;-74
2023/04/29 07:39:49;;;;;;;6.40;4.10;;;;;;;24.45;24.08;100372.46;105585;277;38276;-75
2023/04/29 07:42:23;;;;;;;5.60;3.40;;;;;;;24.65;23.66;100377.66;105531;277;173593;-76
2023/04/29 07:44:58;;;;;;;5.00;3.30;;;;;;;24.72;23.52;100380.41;105540;277;173484;-75
2023/04/29 07:47:34;;;;;;;7.00;3.80;;;;;;;24.80;23.11;100375.75;105599;277;39418;-75
2023/04/29 07:50:13;;;;;;;5.20;3.60;;;;;;;24.93;23.04;100372.42;105506;277;173582;-74
2023/04/29 07:52:48;;;;;;;6.00;3.00;;;;;;;25.27;23.41;100371.00;105663;277;38417;-75
2023/04/29 07:55:25;;;;;;;6.10;3.20;;;;;;;25.81;22.35;100374.58;106035;277;38239;-74
2023/04/29 07:58:10;;;;;;;5.50;3.40;;;;;;;25.95;22.06;100374.69;105617;277;38358;-74
2023/04/29 08:00:46;;;;;;;5.90;2.90;;;;;;;26.26;21.95;100370.30;105656;277;39655;-74
2023/04/29 08:03:20;;;;;;;4.70;3.30;;;;;;;26.56;21.53;100376.99;105395;277;41617;-74
2023/04/29 08:06:05;;;;;;;6.30;3.40;;;;;;;26.83;21.30;100378.13;105404;279;39021;-75
2023/04/29 08:08:44;;;;;;;4.20;3.20;;;;;;;27.37;20.96;100371.57;105628;277;38256;-76
2023/04/29 08:11:24;;;;;;;6.00;2.80;;;;;;;27.73;20.22;100376.40;106052;277;39935;-76
2023/04/29 08:13:59;;;;;;;8.20;3.20;;;;;;;28.05;19.77;100380.20;105637;277;38496;-76
2023/04/29 08:16:33;;;;;;;6.80;3.00;;;;;;;28.02;19.00;100373.05;105634;277;38289;-75
2023/04/29 08:19:07;;;;;;;6.10;2.60;;;;;;;27.93;19.45;100376.19;105628;277;38303;-75
2023/04/29 08:21:41;;;;;;;6.50;2.90;;;;;;;28.03;19.38;100373.65;105597;277;39632;-74
2023/04/29 08:24:15;;;;;;;8.60;3.00;;;;;;;27.97;19.24;100373.36;105499;277;173449;-74
2023/04/29 08:26:50;;;;;;;4.40;2.50;;;;;;;28.16;19.23;100372.70;105640;277;38970;-74
2023/04/29 08:29:26;;;;;;;4.60;2.60;;;;;;;28.35;19.23;100371.45;105366;278;39611;-74
2023/04/29 08:32:00;;;;;;;3.90;2.70;;;;;;;28.57;18.68;100368.98;105371;277;39498;-74
2023/04/29 08:34:35;;;;;;;4.30;2.80;;;;;;;28.85;18.74;100366.55;106038;277;38269;-75
2023/04/29 08:37:09;;;;;;;6.30;2.80;;;;;;;28.97;18.58;100366.36;105367;279;38651;-75
2023/04/29 08:39:45;;;;;;;5.60;2.80;;;;;;;29.29;18.70;100365.30;105603;277;38481;-75
2023/04/29 08:42:19;;;;;;;5.70;2.60;;;;;;;29.34;18.41;100364.23;105645;277;38396;-76
2023/04/29 08:44:53;;;;;;;3.80;2.60;;;;;;;29.34;18.23;100366.67;105589;277;38428;-74
2023/04/29 08:47:30;;;;;;;5.50;3.00;;;;;;;29.08;17.86;100359.82;105590;277;38392;-74
2023/04/29 08:50:07;;;;;;;5.10;3.10;;;;;;;28.75;18.00;100358.85;105598;277;38236;-75
2023/04/29 08:52:41;;;;;;;5.40;3.00;;;;;;;28.32;18.54;100355.45;105496;277;173474;-75
2023/04/29 08:55:15;;;;;;;5.90;2.90;;;;;;;28.11;18.77;100352.41;105612;277;38228;-74
2023/04/29 08:57:49;;;;;;;4.00;2.60;;;;;;;28.16;18.79;100352.09;105655;277;38611;-74
2023/04/29 09:00:23;;;;;;;5.00;2.70;;;;;;;28.33;18.95;100353.98;105624;277;38541;-75
2023/04/29 09:02:57;;;;;;;6.30;3.40;;;;;;;28.54;18.81;100348.52;106078;277;38818;-75
2023/04/29 09:05:31;;;;;;;4.80;3.10;;;;;;;28.67;18.58;100346.66;105586;277;39648;-74
2023/04/29 09:08:05;;;;;;;4.60;3.00;;;;;;;28.45;18.71;100348.85;105595;277;38479;-74
2023/04/29 09:10:41;;;;;;;6.60;3.00;;;;;;;28.04;18.50;100355.25;106072;277;39962;-76
2023/04/29 09:13:26;;;;;;;4.20;3.00;;;;;;;27.38;18.79;100355.64;105587;277;38911;-76
2023/04/29 09:16:00;;;;;;;5.20;2.60;;;;;;;26.64;19.58;100356.58;105575;277;38904;-75
2023/04/29 09:18:53;;;;;;;6.20;3.20;;;;;;;26.34;20.01;100349.80;105617;277;38246;-75
2023/04/29 09:21:28;;;;;;;4.40;2.70;;;;;;;26.32;20.36;100351.60;105605;277;38783;-75
2023/04/29 09:24:03;;;;;;;7.60;3.00;;;;;;;26.41;20.77;100356.15;105554;277;38484;-75
2023/04/29 09:26:44;;;;;;;3.70;3.30;;;;;;;26.23;20.26;100351.58;105525;277;39624;-76
2023/04/29 09:29:18;;;;;;;4.80;2.90;;;;;;;25.85;20.85;100346.05;105382;279;38832;-76
2023/04/29 09:31:52;;;;;;;8.30;2.90;;;;;;;25.42;20.65;100349.52;105572;277;38379;-76
2023/04/29 09:34:37;;;;;;;4.60;3.00;;;;;;;25.05;21.60;100350.98;105544;277;38529;-76
2023/04/29 09:37:25;;;;;;;5.90;3.10;;;;;;;24.90;21.41;100352.88;105030;280;39814;-74
2023/04/29 09:39:59;;;;;;;6.20;3.20;;;;;;;24.54;21.79;100346.85;105570;277;38643;-75
2023/04/29 09:42:32;;;;;;;4.50;2.80;;;;;;;24.28;22.28;100340.89;105535;277;40090;-75
2023/04/29 09:45:08;;;;;;;6.20;3.40;;;;;;;23.91;22.63;100345.55;105963;277;39628;-75
2023/04/29 09:47:42;;;;;;;5.80;3.20;;;;;;;23.38;22.88;100347.39;105581;277;39435;-75
2023/04/29 09:50:18;;;;;;;7.00;3.70;;;;;;;22.68;23.29;100350.20;105455;277;173790;-75
2023/04/29 09:52:52;;;;;;;6.60;3.30;;;;;;;22.13;24.06;100340.04;105973;277;39423;-75
2023/04/29 09:55:26;;;;;;;5.00;3.20;;;;;;;21.94;24.68;100344.04;105938;277;40195;-75
2023/04/29 09:58:06;;;;;;;6.10;2.90;;;;;;;21.94;24.81;100345.25;105318;277;894315;-75
2023/04/29 10:00:40;;;;;;;6.20;2.80;;;;;;;22.07;24.85;100342.15;105584;265;38355;-74
2023/04/29 10:03:14;;;;;;;4.70;3.00;;;;;;;22.07;24.92;100339.86;105569;277;38438;-73
2023/04/29 10:05:48;;;;;;;5.10;2.90;;;;;;;22.04;25.14;100330.35;105354;277;898919;-74
2023/04/29 10:08:22;;;;;;;4.50;3.20;;;;;;;22.18;25.31;100330.08;105317;279;38812;-74
2023/04/29 10:10:56;;;;;;;4.20;3.20;;;;;;;22.15;25.28;100322.86;105655;277;39687;-74
2023/04/29 10:13:30;;;;;;;5.20;3.20;;;;;;;22.17;25.71;100327.68;105941;277;38845;-74
2023/04/29 10:16:11;;;;;;;3.70;3.10;;;;;;;22.09;25.47;100319.41;105953;277;39466;-75
2023/04/29 10:18:48;;;;;;;6.50;3.70;;;;;;;22.07;25.50;100316.42;105945;277;39155;-75
2023/04/29 10:21:25;;;;;;;5.00;2.90;;;;;;;21.86;25.82;100318.42;106015;277;39422;-73
2023/04/29 10:23:59;;;;;;;6.70;3.20;;;;;;;21.84;25.86;100318.62;105587;277;39724;-73
2023/04/29 10:26:35;;;;;;;6.20;3.30;;;;;;;21.77;25.76;100308.23;105645;277;39418;-74
2023/04/29 10:29:10;;;;;;;6.00;3.40;;;;;;;21.66;25.82;100308.10;105614;277;39635;-74
2023/04/29 10:31:44;;;;;;;5.30;3.30;;;;;;;21.61;26.07;100304.91;105635;277;38432;-73
2023/04/29 10:34:20;;;;;;;5.60;3.40;;;;;;;21.56;26.32;100312.13;105949;277;38516;-73
2023/04/29 10:36:54;;;;;;;6.50;3.50;;;;;;;21.52;26.40;100302.85;105649;277;38243;-73
2023/04/29 10:39:32;;;;;;;4.10;2.90;;;;;;;21.51;26.58;100302.26;105714;277;38437;-75
2023/04/29 10:42:06;;;;;;;4.70;3.40;;;;;;;21.36;26.43;100302.82;105653;277;39654;-75
2023/04/29 10:45:13;;;;;;;4.50;3.20;;;;;;;21.15;26.54;100299.75;105669;277;38491;-75
2023/04/29 10:48:10;;;;;;;7.60;3.60;;;;;;;20.94;27.07;100294.58;105927;277;38935;-75
2023/04/29 10:51:06;;;;;;;6.50;3.40;;;;;;;20.92;27.22;100291.76;105687;277;38680;-74
2023/04/29 10:53:57;;;;;;;7.00;3.30;;;;;;;20.86;27.63;100289.02;106007;277;39740;-74
2023/04/29 10:56:44;;;;;;;5.50;3.10;;;;;;;20.82;27.89;100291.45;106034;277;40097;-75
2023/04/29 10:59:20;;;;;;;5.90;3.20;;;;;;;20.78;28.13;100291.44;105651;277;38484;-75
2023/04/29 11:01:55;;;;;;;4.40;2.60;;;;;;;20.74;28.04;100295.30;106011;277;39421;-75
2023/04/29 11:04:29;;;;;;;6.10;2.80;;;;;;;20.75;28.13;100288.48;105634;277;40064;-75
2023/04/29 11:07:03;;;;;;;4.30;2.80;;;;;;;20.89;28.55;100289.54;106087;277;39040;-76
2023/04/29 11:09:38;;;;;;;6.10;3.30;;;;;;;21.04;28.36;100290.76;105349;277;39538;-75
2023/04/29 11:12:13;;;;;;;6.30;3.60;;;;;;;21.11;28.37;100282.30;105619;277;39636;-75
2023/04/29 11:14:51;;;;;;;8.10;2.90;;;;;;;21.04;28.07;100281.14;106020;277;38485;-74
2023/04/29 11:17:25;;;;;;;8.00;3.30;;;;;;;20.96;28.07;100281.11;105425;277;38854;-74
2023/04/29 11:19:59;;;;;;;5.40;2.70;;;;;;;20.87;28.61;100280.96;105640;277;38273;-73
2023/04/29 11:22:34;;;;;;;4.60;2.90;;;;;;;20.83;28.28;100281.48;105633;277;38627;-73
2023/04/29 11:25:10;;;;;;;6.70;3.10;;;;;;;20.65;28.38;100276.70;105614;277;38565;-74
2023/04/29 11:27:46;;;;;;;6.40;3.30;;;;;;;20.42;28.21;100268.34;105615;274;39835;-74
2023/04/29 11:30:20;;;;;;;5.30;2.80;;;;;;;20.24;28.76;100275.42;105653;277;38524;-74
2023/04/29 11:32:54;;;;;;;5.60;3.30;;;;;;;20.19;29.25;100272.96;105653;277;38233;-74
2023/04/29 11:35:29;;;;;;;5.00;3.30;;;;;;;20.18;28.95;100268.51;106028;277;39294;-74
2023/04/29 11:38:04;;;;;;;5.00;3.00;;;;;;;20.13;28.96;100266.52;105640;277;38231;-75
2023/04/29 11:40:41;;;;;;;5.80;3.00;;;;;;;20.15;29.39;100264.32;105651;277;38504;-75
2023/04/29 11:43:20;;;;;;;5.40;3.10;;;;;;;20.17;29.37;100267.84;105651;277;38270;-75
2023/04/29 11:45:54;;;;;;;6.10;3.00;;;;;;;20.20;30.06;100264.75;105644;265;38625;-75
2023/04/29 11:48:29;;;;;;;6.00;3.30;;;;;;;20.32;29.91;100256.33;105621;277;38473;-75
2023/04/29 11:51:03;;;;;;;3.50;2.80;;;;;;;20.41;29.76;100262.22;105630;277;38217;-75
2023/04/29 11:53:39;;;;;;;6.80;3.40;;;;;;;20.40;29.37;100258.73;105418;278;38797;-76
2023/04/29 11:56:14;;;;;;;7.00;3.40;;;;;;;20.37;29.73;100248.14;105385;277;39080;-75
2023/04/29 11:58:48;;;;;;;4.40;3.00;;;;;;;20.34;29.99;100247.54;105623;277;38610;-75
2023/04/29 12:01:22;;;;;;;6.40;3.30;;;;;;;20.37;29.87;100244.80;105639;277;38959;-74
2023/04/29 12:04:01;;;;;;;6.70;3.10;;;;;;;20.42;30.25;100238.72;105639;277;38448;-74